Detall de PIREP

Printer-friendly versionPDF version

[2015/01/06 09:30:00]
Flight IATA:CT1004
Pilot Number:012
Company ICAO:CAT
Aircraft Type:A320/E
PAX:150
Departing Airport: LDSP
Destination Airport: LFMP
Alternate Airport:LEBL
Online: VATSIM
Route:TORPO UM730 GEN UM859 LAGEN UQ712 ENOBA UZ185 KOLON UM984 PADKO UL127 FJR
Flight Level:F360
No Slew and time accel
No pause
Crash detect
Detect pilot in Cockpit between each 30 and 45 minutes
09:30 Zero fuel Weight: 119295 Lbs, Fuel Weight: 17184 Lbs
09:30 VATSIM:LDSP 060830Z 36013KT 330V040 CAVOK 07/M08 Q1025 NOSIG
09:30 VATSIM:LFMP 060830Z AUTO 23005KT 9999 NSC 07/04 Q1025
09:30 X-MAS CHARTER
09:30 Parking Brakes off
09:34 Take-off
09:34 Take off Weight: 135880 Lbs
09:34 Wind: 356º @ 027 Knots Heading: 051º
09:34 POS N43º 32´ 24´´ E016º 17´ 59´´
09:34 Gear Up: 168 Knots
09:34 Flaps:3 at 168 Knots
09:34 Flaps:2 at 186 Knots
09:35 Flaps:1 at 199 Knots
09:35 Flaps:0 at 238 Knots
09:49 Wind:007º@069 Knots Heading: 281º Ground Speed: 450 Knots Altitude 31522 ft
09:51 TOC
09:51 Fuel Weight: 12559 Lb
10:04 Wind:354º@064 Knots Heading: 291º Ground Speed: 420 Knots Altitude 36286 ft
10:19 Wind:340º@040 Knots Heading: 290º Ground Speed: 421 Knots Altitude 36282 ft
10:34 Wind:295º@017 Knots Heading: 236º Ground Speed: 434 Knots Altitude 36299 ft
10:49 Wind:242º@013 Knots Heading: 246º Ground Speed: 427 Knots Altitude 36309 ft
10:54 TOD
10:54 Fuel Weight: 6970 Lb
11:04 Wind:241º@013 Knots Heading: 225º Ground Speed: 326 Knots Altitude 17582 ft
11:13 Flaps:1 at 231 Knots
11:14 Flaps:3 at 209 Knots
11:14 Gear Down: 200 Knots
11:14 Flaps:4 at 170 Knots
11:16 Flaps:5 at 148 Knots
11:18 TouchDown:Rate -189 ft/min Speed: 135 Knots
11:18 VATSIM:LFMP 061100Z AUTO 31010G20KT 280V010 9999 NSC 13/05 Q1025
11:18 Land
11:18 Wind:306º@010 Knots
11:18 Heading: 326º
11:18 Flight Duration: 01:44
11:18 Landing Weight: 124617 Lbs
11:18 POS N42º 44´ 47´´ E002º 52´ 05´´
11:19 Parking brakes on
11:19 Block to Block Duration: 01:49
11:19 Final Fuel: 5174 Lbls
11:19 Spent Fuel: 12010 Lbls
11:19 Flight Length: 670 NM
11:19 TOD Land Length: 119 NM

Exportar CSV

Powered by Drupal - Modified by Danger4k